Time;durP1;ratioP1;P1;durP2;ratioP2;P2;SDS_P1;SDS_P2;PMS_P1;PMS_P2;Temp;Humidity;BMP_temperature;BMP_pressure;BME280_temperature;BME280_humidity;BME280_pressure;Samples;Min_cycle;Max_cycle;Signal;HPM_P1;HPM_P2
2022/03/01 00:01:40;;;;;;;1.80;1.70;;;5.10;99.90;;;;;;5079634;28;20286;-65
2022/03/01 00:04:07;;;;;;;1.77;1.67;;;5.10;99.90;;;;;;5078365;28;20264;-67
2022/03/01 00:06:34;;;;;;;1.80;1.70;;;5.10;99.90;;;;;;5078608;28;20310;-62
2022/03/01 00:09:01;;;;;;;1.75;1.65;;;5.20;99.90;;;;;;5083708;28;20206;-66
2022/03/01 00:11:31;;;;;;;1.73;1.63;;;5.10;99.90;;;;;;5077952;28;20195;-67
2022/03/01 00:13:58;;;;;;;1.90;1.80;;;5.10;99.90;;;;;;5084390;28;20203;-67
2022/03/01 00:16:25;;;;;;;1.67;1.58;;;5.20;99.90;;;;;;5082405;28;20242;-65
2022/03/01 00:18:52;;;;;;;1.90;1.80;;;5.20;99.90;;;;;;5078624;28;20679;-67
2022/03/01 00:21:19;;;;;;;1.80;1.70;;;5.10;99.90;;;;;;5076479;28;20794;-68
2022/03/01 00:23:45;;;;;;;1.77;1.67;;;5.10;99.90;;;;;;5081073;28;20233;-66
2022/03/01 00:26:12;;;;;;;1.83;1.73;;;5.10;99.90;;;;;;5084099;28;20289;-65
2022/03/01 00:28:41;;;;;;;1.70;1.60;;;5.10;99.90;;;;;;5078948;28;20210;-66
2022/03/01 00:31:07;;;;;;;1.50;1.50;;;5.00;99.90;;;;;;5082675;28;20208;-66
2022/03/01 00:33:34;;;;;;;1.70;1.60;;;5.00;99.90;;;;;;5078612;28;20225;-67
2022/03/01 00:36:01;;;;;;;1.75;1.65;;;5.10;99.90;;;;;;5105275;28;20209;-64
2022/03/01 00:38:28;;;;;;;1.80;1.70;;;5.00;99.90;;;;;;5091631;28;20235;-67
2022/03/01 00:40:56;;;;;;;1.77;1.67;;;5.00;99.90;;;;;;5086190;28;20206;-65
2022/03/01 00:43:23;;;;;;;1.77;1.67;;;5.00;99.90;;;;;;5081458;28;20309;-67
2022/03/01 00:45:54;;;;;;;4.88;1.88;;;5.00;99.90;;;;;;5070279;28;20198;-68
2022/03/01 00:48:21;;;;;;;1.80;1.70;;;5.10;99.90;;;;;;5074449;28;20196;-67
2022/03/01 00:50:49;;;;;;;1.67;1.60;;;5.10;99.90;;;;;;5078450;28;20282;-67
2022/03/01 00:53:16;;;;;;;1.80;1.70;;;5.00;99.90;;;;;;5080847;28;20246;-66
2022/03/01 00:55:43;;;;;;;1.80;1.70;;;5.00;99.90;;;;;;5075939;28;20230;-66
2022/03/01 00:58:10;;;;;;;1.70;1.60;;;5.00;99.90;;;;;;5084870;28;20237;-65
2022/03/01 01:00:37;;;;;;;1.80;1.70;;;5.00;99.90;;;;;;5085794;28;20311;-67
2022/03/01 01:03:05;;;;;;;2.00;1.90;;;5.00;99.90;;;;;;5099914;22;20236;-62
2022/03/01 01:05:32;;;;;;;1.65;1.55;;;5.10;99.90;;;;;;5095503;28;20212;-63
2022/03/01 01:07:59;;;;;;;1.77;1.67;;;5.10;99.90;;;;;;5099373;28;20287;-62
2022/03/01 01:10:26;;;;;;;1.47;1.47;;;5.10;99.90;;;;;;5104350;28;20237;-62
2022/03/01 01:12:53;;;;;;;1.70;1.60;;;5.10;99.90;;;;;;5097538;28;20636;-62
2022/03/01 01:15:21;;;;;;;1.73;1.63;;;5.30;99.90;;;;;;5076784;28;20665;-62
2022/03/01 01:17:49;;;;;;;1.52;1.50;;;5.20;99.90;;;;;;5071750;28;20255;-64
2022/03/01 01:20:18;;;;;;;1.77;1.67;;;5.20;99.90;;;;;;5074679;28;20238;-61
2022/03/01 01:22:45;;;;;;;1.73;1.63;;;5.20;99.90;;;;;;5086625;28;20250;-62
2022/03/01 01:25:14;;;;;;;1.50;1.50;;;5.20;99.90;;;;;;5089784;28;20202;-61
2022/03/01 01:27:47;;;;;;;1.63;1.52;;;5.20;99.90;;;;;;5077969;28;20255;-62
2022/03/01 01:30:16;;;;;;;1.67;1.57;;;5.20;99.90;;;;;;5084326;28;20221;-61
2022/03/01 01:32:43;;;;;;;1.60;1.50;;;5.20;99.90;;;;;;5093303;28;20216;-62
2022/03/01 01:35:13;;;;;;;1.50;1.50;;;5.10;99.90;;;;;;5086315;28;20207;-62
2022/03/01 01:37:42;;;;;;;1.80;1.70;;;5.10;99.90;;;;;;5071013;28;20295;-62
2022/03/01 01:40:11;;;;;;;1.40;1.40;;;5.10;99.90;;;;;;5075859;28;20238;-62
2022/03/01 01:42:38;;;;;;;1.70;1.60;;;5.10;99.90;;;;;;5075360;28;20254;-61
2022/03/01 01:45:06;;;;;;;1.70;1.60;;;5.10;99.90;;;;;;5067250;28;20295;-62
2022/03/01 01:47:33;;;;;;;1.75;1.65;;;5.10;99.90;;;;;;5069690;28;20919;-62
2022/03/01 01:50:00;;;;;;;1.80;1.70;;;5.00;99.90;;;;;;5070595;28;20203;-61
2022/03/01 01:52:28;;;;;;;1.70;1.60;;;5.00;99.90;;;;;;5086093;28;20214;-62
2022/03/01 01:54:57;;;;;;;2.03;1.93;;;5.00;99.90;;;;;;5082975;28;20215;-62
2022/03/01 01:57:25;;;;;;;1.70;1.60;;;5.00;99.90;;;;;;5087489;28;20211;-62
2022/03/01 01:59:54;;;;;;;1.70;1.60;;;5.00;99.90;;;;;;5081120;28;20283;-61
2022/03/01 02:02:22;;;;;;;1.90;1.80;;;5.00;99.90;;;;;;5071272;28;20284;-62
2022/03/01 02:04:49;;;;;;;1.40;1.40;;;5.00;99.90;;;;;;5066407;28;20306;-61
2022/03/01 02:07:17;;;;;;;1.70;1.60;;;5.00;99.90;;;;;;5053604;28;20299;-62
2022/03/01 02:09:44;;;;;;;1.30;1.30;;;5.00;99.90;;;;;;5053761;28;20621;-63
2022/03/01 02:12:12;;;;;;;1.70;1.60;;;4.90;99.90;;;;;;5053296;28;20714;-63
2022/03/01 02:14:40;;;;;;;1.75;1.65;;;4.80;99.90;;;;;;5053670;28;20303;-63
2022/03/01 02:17:09;;;;;;;1.50;1.50;;;4.80;99.90;;;;;;5053838;28;20621;-61
2022/03/01 02:19:36;;;;;;;1.70;1.60;;;4.70;99.90;;;;;;5053403;28;20207;-61
2022/03/01 02:22:06;;;;;;;1.70;1.60;;;4.60;99.90;;;;;;5053891;28;20293;-62
2022/03/01 02:24:34;;;;;;;1.60;1.50;;;4.50;99.90;;;;;;5053445;28;20596;-61
2022/03/01 02:27:04;;;;;;;1.77;1.67;;;4.40;99.90;;;;;;5052554;28;20203;-64
2022/03/01 02:29:32;;;;;;;1.80;1.70;;;4.30;99.90;;;;;;5053398;28;20545;-61
2022/03/01 02:32:06;;;;;;;1.80;1.70;;;4.20;99.90;;;;;;5053487;28;20631;-61
2022/03/01 02:34:33;;;;;;;2.03;1.50;;;4.10;99.90;;;;;;5053391;28;20690;-62
2022/03/01 02:37:01;;;;;;;1.50;1.50;;;4.10;99.90;;;;;;5053512;28;20204;-62
2022/03/01 02:39:29;;;;;;;1.80;1.70;;;4.00;99.90;;;;;;5053253;28;20674;-62
2022/03/01 02:41:56;;;;;;;1.80;1.70;;;3.90;99.90;;;;;;5053478;28;20208;-62
2022/03/01 02:44:23;;;;;;;1.75;1.65;;;3.90;99.90;;;;;;5053649;28;20318;-61
2022/03/01 02:46:50;;;;;;;1.77;1.67;;;3.90;99.90;;;;;;5053097;28;20258;-62
2022/03/01 02:49:17;;;;;;;1.73;1.63;;;3.90;99.90;;;;;;5053474;28;20261;-62
2022/03/01 02:51:44;;;;;;;1.80;1.70;;;3.90;99.90;;;;;;5053877;28;20294;-62
2022/03/01 02:54:11;;;;;;;1.70;1.60;;;4.00;99.90;;;;;;5053307;28;20690;-62
2022/03/01 02:56:39;;;;;;;1.70;1.60;;;4.00;99.90;;;;;;5053504;28;20200;-61
2022/03/01 02:59:07;;;;;;;1.70;1.60;;;4.00;99.90;;;;;;5053499;28;20591;-62
2022/03/01 03:01:34;;;;;;;1.50;1.40;;;3.90;99.90;;;;;;5055645;28;20295;-62
2022/03/01 03:04:01;;;;;;;1.30;1.30;;;3.90;99.90;;;;;;5071703;28;20235;-62
2022/03/01 03:06:28;;;;;;;1.77;1.67;;;3.90;99.90;;;;;;5065640;28;20286;-61
2022/03/01 03:08:56;;;;;;;1.70;1.60;;;3.90;99.90;;;;;;5073097;28;20756;-63
2022/03/01 03:11:23;;;;;;;1.70;1.60;;;3.80;99.90;;;;;;5072991;28;20210;-62
2022/03/01 03:13:51;;;;;;;1.70;1.60;;;3.70;99.90;;;;;;5074247;28;20242;-62
2022/03/01 03:16:18;;;;;;;1.67;1.57;;;3.60;99.90;;;;;;5078636;28;20203;-62
2022/03/01 03:18:45;;;;;;;1.70;1.60;;;3.50;99.90;;;;;;5077887;28;20199;-62
2022/03/01 03:21:13;;;;;;;1.77;1.67;;;3.50;99.90;;;;;;5077358;28;20234;-62
2022/03/01 03:23:40;;;;;;;1.60;1.50;;;3.40;99.90;;;;;;5074738;28;20231;-62
2022/03/01 03:26:07;;;;;;;1.60;1.50;;;3.30;99.90;;;;;;5072800;28;20294;-61
2022/03/01 03:28:34;;;;;;;1.60;1.50;;;3.30;99.90;;;;;;5072588;28;20209;-62
2022/03/01 03:31:02;;;;;;;1.50;1.50;;;3.30;99.90;;;;;;5072629;28;20298;-63
2022/03/01 03:33:29;;;;;;;1.63;1.53;;;3.30;99.90;;;;;;5072595;28;20312;-61
2022/03/01 03:35:58;;;;;;;1.67;1.58;;;3.30;99.90;;;;;;5072874;28;20268;-60
2022/03/01 03:38:25;;;;;;;1.52;1.42;;;3.20;99.90;;;;;;5073141;28;20195;-61
2022/03/01 03:40:52;;;;;;;1.60;1.50;;;3.20;99.90;;;;;;5072598;28;20210;-62
2022/03/01 03:43:19;;;;;;;1.73;1.63;;;3.10;99.90;;;;;;5066319;28;20259;-62
2022/03/01 03:45:46;;;;;;;1.40;1.40;;;3.00;99.90;;;;;;5067304;28;20206;-62
2022/03/01 03:48:15;;;;;;;1.65;1.55;;;3.00;99.90;;;;;;5055419;28;20199;-62
2022/03/01 03:50:42;;;;;;;1.50;1.50;;;2.90;99.90;;;;;;5072011;28;20238;-63
2022/03/01 03:53:09;;;;;;;1.50;1.50;;;2.90;99.90;;;;;;5071990;28;20238;-62
2022/03/01 03:55:36;;;;;;;1.93;1.83;;;2.90;99.90;;;;;;5071686;28;20306;-61
2022/03/01 03:58:03;;;;;;;1.70;1.60;;;2.90;99.90;;;;;;5072584;28;20239;-62
2022/03/01 04:00:30;;;;;;;1.60;1.53;;;2.90;99.90;;;;;;5072495;28;20207;-61
2022/03/01 04:02:57;;;;;;;2.10;2.00;;;2.90;99.90;;;;;;5071735;28;20280;-61
2022/03/01 04:05:25;;;;;;;1.52;1.48;;;2.90;99.90;;;;;;5078559;28;20286;-61
2022/03/01 04:07:52;;;;;;;1.65;1.55;;;2.90;99.90;;;;;;5078347;28;20203;-61
2022/03/01 04:10:19;;;;;;;1.40;1.40;;;2.90;99.90;;;;;;5071210;28;20292;-62
2022/03/01 04:12:46;;;;;;;1.43;1.43;;;2.90;99.90;;;;;;5071627;28;20314;-63
2022/03/01 04:15:13;;;;;;;1.42;1.42;;;2.90;99.90;;;;;;5071566;28;20380;-61
2022/03/01 04:17:41;;;;;;;1.60;1.50;;;2.90;99.90;;;;;;5071306;28;20238;-60
2022/03/01 04:20:10;;;;;;;1.70;1.60;;;2.80;99.90;;;;;;5070911;28;20294;-62
2022/03/01 04:22:38;;;;;;;1.83;1.50;;;2.80;99.90;;;;;;5071097;28;20306;-63
2022/03/01 04:25:07;;;;;;;1.63;1.55;;;2.80;99.90;;;;;;5070717;28;20215;-61
2022/03/01 04:27:34;;;;;;;1.57;1.50;;;2.70;99.90;;;;;;5071212;28;20203;-63
2022/03/01 04:30:01;;;;;;;1.73;1.63;;;2.70;99.90;;;;;;5070800;28;20203;-62
2022/03/01 04:32:28;;;;;;;1.55;1.45;;;2.60;99.90;;;;;;5071145;28;20206;-62
2022/03/01 04:34:55;;;;;;;1.70;1.60;;;2.60;99.90;;;;;;5070874;28;20290;-62
2022/03/01 04:37:22;;;;;;;1.35;1.35;;;2.60;99.90;;;;;;5070799;28;20681;-62
2022/03/01 04:39:50;;;;;;;1.43;1.43;;;2.60;99.90;;;;;;5070906;28;20294;-63
2022/03/01 04:42:17;;;;;;;1.60;1.50;;;2.60;99.90;;;;;;5071726;28;20293;-62
2022/03/01 04:44:44;;;;;;;1.83;1.73;;;2.60;99.90;;;;;;5072629;28;20340;-63
2022/03/01 04:47:11;;;;;;;1.70;1.60;;;2.50;99.90;;;;;;5072112;28;20199;-62
2022/03/01 04:49:38;;;;;;;1.83;1.73;;;2.40;99.90;;;;;;5071711;28;20310;-62
2022/03/01 04:52:05;;;;;;;1.70;1.60;;;2.40;99.90;;;;;;5072276;28;20242;-61
2022/03/01 04:54:33;;;;;;;1.60;1.50;;;2.50;99.90;;;;;;5071896;28;20306;-62
2022/03/01 04:57:01;;;;;;;1.30;1.30;;;2.50;99.90;;;;;;5072580;28;20207;-61
2022/03/01 04:59:28;;;;;;;1.53;1.43;;;2.50;99.90;;;;;;5072697;28;20235;-62
2022/03/01 05:01:55;;;;;;;1.60;1.50;;;2.50;99.90;;;;;;5072574;28;20681;-62
2022/03/01 05:04:23;;;;;;;1.42;1.40;;;2.50;99.90;;;;;;5072458;28;20317;-61
2022/03/01 05:06:50;;;;;;;1.40;1.40;;;2.50;99.90;;;;;;5072656;28;20290;-61
2022/03/01 05:09:17;;;;;;;1.90;1.80;;;2.50;99.90;;;;;;5071808;28;20207;-61
2022/03/01 05:11:44;;;;;;;1.47;1.43;;;2.50;99.90;;;;;;5072171;28;20199;-62
2022/03/01 05:14:12;;;;;;;1.52;1.42;;;2.50;99.90;;;;;;5071549;28;20251;-63
2022/03/01 05:16:39;;;;;;;1.40;1.40;;;2.40;99.90;;;;;;5070339;28;20294;-63
2022/03/01 05:19:07;;;;;;;1.50;1.50;;;2.40;99.90;;;;;;5069852;28;20254;-63
2022/03/01 05:21:34;;;;;;;1.60;1.50;;;2.40;99.90;;;;;;5062912;28;20325;-65
2022/03/01 05:24:01;;;;;;;1.35;1.35;;;2.30;99.90;;;;;;5070371;28;20232;-62
2022/03/01 05:26:28;;;;;;;1.23;1.23;;;2.20;99.90;;;;;;5070727;28;20207;-64
2022/03/01 05:28:55;;;;;;;1.67;1.57;;;2.20;99.90;;;;;;5071455;28;20242;-64
2022/03/01 05:31:24;;;;;;;1.73;1.63;;;2.10;99.90;;;;;;5071022;28;20207;-63
2022/03/01 05:33:52;;;;;;;1.58;1.50;;;2.10;99.90;;;;;;5071231;28;20747;-63
2022/03/01 05:36:20;;;;;;;1.77;1.67;;;2.00;99.90;;;;;;5071324;28;20244;-62
2022/03/01 05:38:47;;;;;;;1.70;1.60;;;1.90;99.90;;;;;;5074914;28;20211;-64
2022/03/01 05:41:14;;;;;;;1.60;1.50;;;1.80;99.90;;;;;;5075644;28;20210;-67
2022/03/01 05:43:41;;;;;;;1.63;1.53;;;1.80;99.90;;;;;;5076584;28;20226;-63
2022/03/01 05:46:08;;;;;;;1.70;1.60;;;1.80;99.90;;;;;;5074821;28;20313;-65
2022/03/01 05:48:36;;;;;;;1.60;1.50;;;1.80;99.90;;;;;;5067956;28;20687;-64
2022/03/01 05:51:04;;;;;;;2.78;1.70;;;1.70;99.90;;;;;;5066028;28;20650;-64
2022/03/01 05:53:31;;;;;;;1.80;1.70;;;1.70;99.90;;;;;;5071913;28;20223;-64
2022/03/01 05:55:58;;;;;;;1.50;1.50;;;1.70;99.90;;;;;;5076800;28;20298;-65
2022/03/01 05:58:25;;;;;;;1.67;1.60;;;1.70;99.90;;;;;;5075432;28;20235;-65
2022/03/01 06:00:51;;;;;;;1.20;1.20;;;1.70;99.90;;;;;;5074082;28;20209;-63
2022/03/01 06:03:18;;;;;;;1.75;1.65;;;1.80;99.90;;;;;;5069414;28;20354;-63
2022/03/01 06:05:46;;;;;;;1.80;1.70;;;1.80;99.90;;;;;;5065284;28;20310;-63
2022/03/01 06:08:13;;;;;;;1.52;1.50;;;1.80;99.90;;;;;;5070530;28;20218;-65
2022/03/01 06:10:40;;;;;;;1.60;1.50;;;1.80;99.90;;;;;;5071748;28;20199;-63
2022/03/01 06:13:07;;;;;;;1.70;1.60;;;1.70;99.90;;;;;;5058188;28;20307;-65
2022/03/01 06:15:34;;;;;;;1.70;1.60;;;1.70;99.90;;;;;;5066302;28;20291;-64
2022/03/01 06:18:01;;;;;;;1.43;1.40;;;1.70;99.90;;;;;;5063859;28;20237;-63
2022/03/01 06:20:28;;;;;;;1.83;1.73;;;1.60;99.90;;;;;;5060013;28;20235;-64
2022/03/01 06:22:56;;;;;;;2.00;1.77;;;1.60;99.90;;;;;;5053454;28;20356;-63
2022/03/01 06:25:23;;;;;;;1.67;1.58;;;1.60;99.90;;;;;;5064953;28;20305;-63
2022/03/01 06:27:52;;;;;;;1.27;1.27;;;1.70;99.90;;;;;;5065613;28;20231;-64
2022/03/01 06:30:19;;;;;;;1.60;1.50;;;1.70;99.90;;;;;;5078930;28;20270;-65
2022/03/01 06:32:46;;;;;;;1.73;1.63;;;1.70;99.90;;;;;;5066738;28;20251;-64
2022/03/01 06:35:13;;;;;;;1.70;1.60;;;1.70;99.90;;;;;;5071624;28;20294;-64
2022/03/01 06:37:40;;;;;;;1.70;1.60;;;1.70;99.90;;;;;;5067404;28;20298;-65
2022/03/01 06:40:12;;;;;;;1.75;1.65;;;1.70;99.90;;;;;;5061621;28;20232;-65
2022/03/01 06:42:39;;;;;;;1.70;1.60;;;1.70;99.90;;;;;;5061876;28;20314;-64
2022/03/01 06:45:07;;;;;;;1.60;1.50;;;1.80;99.90;;;;;;5067037;28;20306;-65
2022/03/01 06:47:34;;;;;;;1.70;1.60;;;1.80;99.90;;;;;;5069718;28;20613;-63
2022/03/01 06:50:01;;;;;;;1.55;1.50;;;1.90;99.90;;;;;;5068595;28;20290;-64
2022/03/01 06:52:28;;;;;;;1.33;1.33;;;1.90;99.90;;;;;;5071683;28;20262;-65
2022/03/01 06:54:55;;;;;;;1.70;1.60;;;2.00;99.90;;;;;;5069800;28;20750;-65
2022/03/01 06:57:24;;;;;;;1.60;1.50;;;2.00;99.90;;;;;;5074412;28;20199;-64
2022/03/01 06:59:53;;;;;;;1.50;1.40;;;2.10;99.90;;;;;;5072224;28;20230;-63
2022/03/01 07:02:20;;;;;;;1.63;1.53;;;2.10;99.90;;;;;;5072490;28;20207;-65
2022/03/01 07:04:47;;;;;;;1.70;1.60;;;2.20;99.90;;;;;;5091621;22;20223;-60
2022/03/01 07:07:14;;;;;;;1.92;1.60;;;2.20;99.90;;;;;;5070401;28;20211;-61
2022/03/01 07:09:41;;;;;;;1.80;1.70;;;2.30;99.90;;;;;;5065215;28;20699;-63
2022/03/01 07:12:08;;;;;;;1.90;1.80;;;2.30;99.90;;;;;;5062651;28;20234;-63
2022/03/01 07:14:38;;;;;;;1.80;1.70;;;2.30;99.90;;;;;;5067628;28;20592;-61
2022/03/01 07:17:05;;;;;;;1.98;1.60;;;2.30;99.90;;;;;;5061833;28;20568;-63
2022/03/01 07:19:32;;;;;;;1.80;1.70;;;2.40;99.90;;;;;;5053628;28;20696;-62
2022/03/01 07:21:59;;;;;;;1.67;1.58;;;2.40;99.90;;;;;;5053588;28;20295;-61
2022/03/01 07:24:26;;;;;;;1.87;1.77;;;2.50;99.90;;;;;;5053538;28;20736;-63
2022/03/01 07:26:53;;;;;;;1.80;1.70;;;2.50;99.90;;;;;;5053991;28;20235;-62
2022/03/01 07:29:20;;;;;;;3.13;2.38;;;2.60;99.90;;;;;;5053620;28;20223;-62
2022/03/01 07:31:48;;;;;;;4.95;3.00;;;2.70;99.90;;;;;;5053599;28;20283;-63
2022/03/01 07:34:15;;;;;;;2.85;2.65;;;2.90;99.90;;;;;;5053434;28;20249;-63
2022/03/01 07:36:42;;;;;;;2.90;2.70;;;3.00;99.90;;;;;;5053572;28;20560;-64
2022/03/01 07:39:09;;;;;;;2.40;2.30;;;2.90;99.90;;;;;;5053358;28;20261;-62
2022/03/01 07:41:36;;;;;;;2.40;2.30;;;2.80;99.90;;;;;;5053702;28;20243;-62
2022/03/01 07:44:04;;;;;;;2.47;2.37;;;3.00;99.90;;;;;;5052861;28;20239;-62
2022/03/01 07:46:31;;;;;;;3.67;3.38;;;3.00;99.90;;;;;;5052958;28;20231;-62
2022/03/01 07:48:59;;;;;;;3.30;3.10;;;2.80;99.90;;;;;;5052891;28;20215;-62
2022/03/01 07:51:26;;;;;;;3.60;3.30;;;2.60;99.90;;;;;;5053554;28;20257;-62
2022/03/01 07:53:53;;;;;;;2.97;2.88;;;2.50;99.90;;;;;;5052795;28;20295;-62
2022/03/01 07:56:21;;;;;;;3.70;3.50;;;2.40;99.90;;;;;;5053287;28;20686;-62
2022/03/01 07:58:49;;;;;;;4.38;4.07;;;2.40;99.90;;;;;;5053297;28;20204;-62
2022/03/01 08:01:16;;;;;;;4.43;4.13;;;2.30;99.90;;;;;;5052543;28;20204;-62
2022/03/01 08:03:43;;;;;;;4.27;3.97;;;2.20;99.90;;;;;;5052839;28;20203;-61
2022/03/01 08:06:11;;;;;;;4.50;4.20;;;2.20;99.90;;;;;;5055448;28;20276;-63
2022/03/01 08:08:39;;;;;;;4.00;3.80;;;2.30;99.90;;;;;;5055079;28;20240;-62
2022/03/01 08:11:06;;;;;;;3.88;3.67;;;2.30;99.90;;;;;;5052945;28;20290;-63
2022/03/01 08:13:33;;;;;;;3.95;3.75;;;2.40;99.90;;;;;;5053103;28;20258;-61
2022/03/01 08:16:00;;;;;;;4.57;4.35;;;2.50;99.90;;;;;;5052694;28;20226;-61
2022/03/01 08:18:27;;;;;;;4.77;4.47;;;2.50;99.90;;;;;;5052807;28;20565;-62
2022/03/01 08:20:54;;;;;;;4.85;4.55;;;2.60;99.90;;;;;;5052727;28;20242;-62
2022/03/01 08:23:22;;;;;;;4.90;4.60;;;2.70;99.90;;;;;;5053193;28;20242;-61
2022/03/01 08:25:49;;;;;;;4.50;4.20;;;2.80;99.90;;;;;;5052997;28;20254;-63
2022/03/01 08:28:16;;;;;;;4.32;4.05;;;2.90;99.90;;;;;;5053215;28;20297;-62
2022/03/01 08:30:43;;;;;;;3.80;3.50;;;3.00;99.90;;;;;;5052834;28;20210;-62
2022/03/01 08:33:10;;;;;;;3.75;3.55;;;3.20;99.90;;;;;;5052531;28;20254;-61
2022/03/01 08:35:37;;;;;;;3.77;3.57;;;3.40;99.90;;;;;;5052202;28;20299;-63
2022/03/01 08:38:05;;;;;;;3.55;3.35;;;3.50;99.90;;;;;;5055685;28;20226;-61
2022/03/01 08:40:37;;;;;;;3.80;3.60;;;3.40;99.90;;;;;;5059000;28;20295;-62
2022/03/01 08:43:05;;;;;;;3.30;3.10;;;3.30;99.90;;;;;;5060166;28;20615;-63
2022/03/01 08:45:33;;;;;;;3.43;3.23;;;3.40;99.90;;;;;;5060673;28;20227;-61
2022/03/01 08:48:01;;;;;;;3.78;3.55;;;3.70;99.90;;;;;;5054773;28;20268;-62
2022/03/01 08:50:28;;;;;;;3.80;3.50;;;3.90;99.90;;;;;;5052837;28;20267;-62
2022/03/01 08:52:55;;;;;;;3.33;3.13;;;4.00;99.90;;;;;;5053481;28;20231;-61
2022/03/01 08:55:22;;;;;;;3.50;3.30;;;4.20;99.90;;;;;;5055279;28;20307;-62
2022/03/01 08:57:50;;;;;;;3.80;3.57;;;4.40;99.90;;;;;;5052883;28;20243;-62
2022/03/01 09:00:18;;;;;;;3.47;3.27;;;4.60;99.90;;;;;;5052905;28;20258;-62
2022/03/01 09:02:45;;;;;;;3.50;3.30;;;4.60;99.90;;;;;;5052634;28;20273;-62
2022/03/01 09:05:13;;;;;;;3.70;3.50;;;4.60;99.90;;;;;;5052293;28;20239;-62
2022/03/01 09:07:40;;;;;;;4.00;3.80;;;4.70;99.90;;;;;;5053205;28;20211;-61
2022/03/01 09:10:08;;;;;;;3.70;3.50;;;4.70;99.90;;;;;;5053068;28;20300;-62
2022/03/01 09:12:35;;;;;;;3.77;3.57;;;4.60;99.90;;;;;;5054129;28;20240;-63
2022/03/01 09:15:04;;;;;;;3.17;2.97;;;4.70;99.90;;;;;;5055576;28;20311;-61
2022/03/01 09:17:31;;;;;;;3.47;3.28;;;5.00;99.90;;;;;;5056167;28;20294;-62
2022/03/01 09:19:58;;;;;;;2.90;2.80;;;5.20;99.90;;;;;;5056171;28;20214;-62
2022/03/01 09:22:24;;;;;;;3.63;3.42;;;5.40;99.90;;;;;;5056492;28;20299;-62
2022/03/01 09:24:51;;;;;;;3.10;3.00;;;5.60;99.90;;;;;;5063761;28;20224;-61
2022/03/01 09:27:18;;;;;;;3.08;2.90;;;5.70;99.90;;;;;;5063943;28;20249;-62
2022/03/01 09:29:45;;;;;;;3.40;3.20;;;5.90;99.90;;;;;;5061445;28;20239;-62
2022/03/01 09:32:15;;;;;;;3.40;3.20;;;6.10;99.90;;;;;;5059406;28;20204;-62
2022/03/01 09:34:42;;;;;;;3.78;3.58;;;6.10;99.90;;;;;;5057099;28;20224;-62
2022/03/01 09:37:08;;;;;;;3.90;3.70;;;6.20;99.90;;;;;;5067409;28;20231;-62
2022/03/01 09:39:36;;;;;;;3.70;3.50;;;6.30;99.90;;;;;;5069004;28;20240;-62
2022/03/01 09:42:03;;;;;;;3.60;3.40;;;6.30;99.90;;;;;;5070069;28;20204;-62
2022/03/01 09:44:31;;;;;;;3.50;3.30;;;6.40;99.90;;;;;;5064420;28;20675;-61
2022/03/01 09:46:58;;;;;;;3.70;3.40;;;6.40;99.90;;;;;;5055517;28;20234;-61
2022/03/01 09:49:27;;;;;;;3.23;3.03;;;6.30;99.90;;;;;;5055400;28;20294;-61
2022/03/01 09:51:55;;;;;;;3.77;3.47;;;6.40;99.90;;;;;;5055263;28;20207;-62
2022/03/01 09:54:23;;;;;;;3.60;3.30;;;6.40;99.90;;;;;;5055403;28;20664;-62
2022/03/01 09:56:50;;;;;;;2.63;2.53;;;6.50;99.90;;;;;;5055026;28;20212;-62
2022/03/01 09:59:17;;;;;;;3.30;3.10;;;6.60;99.90;;;;;;5055420;28;20207;-62
2022/03/01 10:01:49;;;;;;;2.90;2.80;;;6.70;99.90;;;;;;5055515;28;20204;-61
2022/03/01 10:04:16;;;;;;;2.80;2.70;;;6.50;99.90;;;;;;5054861;28;20215;-62
2022/03/01 10:06:47;;;;;;;2.93;2.73;;;6.40;99.90;;;;;;5054860;28;20218;-62
2022/03/01 10:09:16;;;;;;;2.80;2.60;;;6.20;99.90;;;;;;5055013;28;20682;-62
2022/03/01 10:11:43;;;;;;;2.40;2.30;;;6.40;99.90;;;;;;5055115;28;20240;-62
2022/03/01 10:14:11;;;;;;;2.83;2.63;;;6.60;99.90;;;;;;5054623;28;20447;-61
2022/03/01 10:16:39;;;;;;;2.45;2.35;;;6.60;99.90;;;;;;5055010;28;20699;-61
2022/03/01 10:19:11;;;;;;;2.50;2.40;;;6.80;99.90;;;;;;5054948;28;20239;-61
2022/03/01 10:21:38;;;;;;;2.65;2.53;;;7.00;99.90;;;;;;5054789;28;20215;-61
2022/03/01 10:24:08;;;;;;;2.83;2.70;;;7.30;99.90;;;;;;5055045;28;20688;-62
2022/03/01 10:26:37;;;;;;;2.63;2.53;;;7.30;99.90;;;;;;5054884;28;20227;-62
2022/03/01 10:29:06;;;;;;;2.97;2.78;;;7.50;99.90;;;;;;5054981;28;20214;-61
2022/03/01 10:31:35;;;;;;;2.40;2.30;;;7.60;99.90;;;;;;5057046;28;20604;-62
2022/03/01 10:34:04;;;;;;;2.80;2.70;;;7.60;99.90;;;;;;5055512;28;20210;-62
2022/03/01 10:36:33;;;;;;;3.00;2.90;;;7.70;99.90;;;;;;5055491;28;20235;-62
2022/03/01 10:39:03;;;;;;;2.90;2.70;;;7.70;99.90;;;;;;5055122;28;20235;-61
2022/03/01 10:41:33;;;;;;;2.60;2.50;;;7.80;99.90;;;;;;5054629;28;20278;-61
2022/03/01 10:44:03;;;;;;;2.70;2.53;;;7.90;99.90;;;;;;5054407;28;20276;-61
2022/03/01 10:46:31;;;;;;;3.07;2.97;;;8.00;99.90;;;;;;5054304;28;20220;-61
2022/03/01 10:49:08;;;;;;;2.90;2.70;;;8.10;99.90;;;;;;5054395;28;20669;-60
2022/03/01 10:51:35;;;;;;;3.07;2.80;;;8.20;99.90;;;;;;5054325;28;20210;-61
2022/03/01 10:54:02;;;;;;;2.70;2.57;;;8.20;99.90;;;;;;5054008;28;20199;-61
2022/03/01 10:56:38;;;;;;;2.70;2.50;;;8.40;99.90;;;;;;5054363;28;20333;-62
2022/03/01 10:59:06;;;;;;;2.97;2.77;;;8.50;99.90;;;;;;5053997;28;20192;-63
2022/03/01 11:01:32;;;;;;;2.63;2.47;;;8.30;99.90;;;;;;5054070;28;20294;-62
2022/03/01 11:03:59;;;;;;;2.78;2.67;;;8.10;99.90;;;;;;5053843;28;20291;-61
2022/03/01 11:06:27;;;;;;;2.88;2.67;;;8.00;99.90;;;;;;5053555;28;20694;-61
2022/03/01 11:08:55;;;;;;;2.60;2.50;;;7.80;99.90;;;;;;5053553;28;20203;-61
2022/03/01 11:11:24;;;;;;;3.10;2.90;;;7.70;99.90;;;;;;5054441;28;20568;-62
2022/03/01 11:13:53;;;;;;;3.07;2.87;;;7.70;99.90;;;;;;5053911;28;20254;-63
2022/03/01 11:16:28;;;;;;;2.77;2.67;;;7.70;99.90;;;;;;5055791;28;20263;-61
2022/03/01 11:19:03;;;;;;;2.70;2.60;;;7.60;99.90;;;;;;5055742;28;20214;-62
2022/03/01 11:21:32;;;;;;;2.90;2.70;;;7.80;99.90;;;;;;5054266;28;20215;-63
2022/03/01 11:23:59;;;;;;;3.37;3.17;;;7.80;99.90;;;;;;5053529;28;20235;-62
2022/03/01 11:26:37;;;;;;;2.80;2.70;;;7.90;99.90;;;;;;5054104;28;20232;-61
2022/03/01 11:29:10;;;;;;;2.70;2.60;;;7.60;99.90;;;;;;5053423;28;20204;-63
2022/03/01 11:31:37;;;;;;;2.60;2.50;;;7.50;99.90;;;;;;5053724;28;20203;-62
2022/03/01 11:34:08;;;;;;;3.00;2.80;;;7.70;99.90;;;;;;5053663;28;20634;-62
2022/03/01 11:36:36;;;;;;;3.20;3.00;;;7.80;99.90;;;;;;5053713;28;20200;-63
2022/03/01 11:39:15;;;;;;;3.35;3.15;;;7.90;99.90;;;;;;5052942;28;20238;-63
2022/03/01 11:41:47;;;;;;;2.80;2.70;;;8.00;99.90;;;;;;5053354;28;20219;-62
2022/03/01 11:44:18;;;;;;;3.10;2.90;;;8.10;99.90;;;;;;5053788;28;20196;-62
2022/03/01 11:46:46;;;;;;;3.03;2.90;;;8.10;99.90;;;;;;5053363;28;20236;-62
2022/03/01 11:49:15;;;;;;;2.77;2.67;;;8.10;99.90;;;;;;5053296;28;20299;-62
2022/03/01 11:51:49;;;;;;;2.90;2.80;;;8.00;99.90;;;;;;5053604;28;20267;-62
2022/03/01 11:54:21;;;;;;;2.88;2.67;;;8.10;99.90;;;;;;5053429;28;20673;-62
2022/03/01 11:56:50;;;;;;;2.90;2.80;;;8.30;99.90;;;;;;5053018;28;20188;-61
2022/03/01 11:59:19;;;;;;;2.90;2.80;;;8.30;99.90;;;;;;5053628;28;20596;-62
2022/03/01 12:01:48;;;;;;;2.90;2.80;;;8.20;99.90;;;;;;5053514;28;20208;-62
2022/03/01 12:04:21;;;;;;;3.00;2.80;;;8.20;99.90;;;;;;5053162;28;20215;-63
2022/03/01 12:06:52;;;;;;;2.92;2.72;;;8.00;99.90;;;;;;5052939;28;20223;-63
2022/03/01 12:09:19;;;;;;;2.45;2.35;;;8.10;99.90;;;;;;5052775;28;20214;-63
2022/03/01 12:11:47;;;;;;;2.60;2.40;;;8.40;99.90;;;;;;5053116;28;20235;-62
2022/03/01 12:14:19;;;;;;;2.40;2.30;;;8.70;99.90;;;;;;5052997;28;20208;-62
2022/03/01 12:16:46;;;;;;;2.95;2.75;;;8.70;99.90;;;;;;5053354;28;20593;-62
2022/03/01 12:19:15;;;;;;;2.58;2.47;;;8.90;99.90;;;;;;5053632;28;20284;-63
2022/03/01 12:21:49;;;;;;;3.25;3.05;;;9.00;99.90;;;;;;5053399;28;20203;-63
2022/03/01 12:24:17;;;;;;;3.07;2.87;;;9.00;99.90;;;;;;5052930;28;20293;-62
2022/03/01 12:26:46;;;;;;;3.17;2.97;;;9.00;99.90;;;;;;5052501;28;20230;-62
2022/03/01 12:29:15;;;;;;;2.80;2.60;;;9.00;99.90;;;;;;5052757;28;20290;-64
2022/03/01 12:31:44;;;;;;;2.90;2.70;;;9.00;99.90;;;;;;5053669;28;20800;-62
2022/03/01 12:34:11;;;;;;;3.00;2.80;;;8.90;99.90;;;;;;5054746;28;20225;-63
2022/03/01 12:36:40;;;;;;;2.90;2.80;;;8.80;99.90;;;;;;5053659;28;20286;-63
2022/03/01 12:39:09;;;;;;;3.10;2.90;;;8.70;99.90;;;;;;5055121;28;20204;-63
2022/03/01 12:41:37;;;;;;;2.70;2.60;;;8.60;99.90;;;;;;5055902;28;20223;-63
2022/03/01 12:44:06;;;;;;;2.33;2.23;;;8.80;99.90;;;;;;5057159;28;20267;-62
2022/03/01 12:46:34;;;;;;;2.88;2.67;;;9.00;99.90;;;;;;5055096;28;20220;-63
2022/03/01 12:49:04;;;;;;;2.72;2.63;;;9.20;99.90;;;;;;5052614;28;20231;-63
2022/03/01 12:51:32;;;;;;;2.53;2.42;;;9.20;99.90;;;;;;5052847;28;20188;-62
2022/03/01 12:54:00;;;;;;;2.60;2.50;;;9.20;99.90;;;;;;5052127;28;20290;-63
2022/03/01 12:56:30;;;;;;;2.77;2.57;;;9.30;99.90;;;;;;5051901;28;20223;-63
2022/03/01 12:59:02;;;;;;;2.70;2.50;;;9.40;99.90;;;;;;5052470;28;20654;-63
2022/03/01 13:01:29;;;;;;;2.57;2.47;;;9.50;99.90;;;;;;5051812;28;20204;-62